Time;durP1;ratioP1;P1;durP2;ratioP2;P2;SDS_P1;SDS_P2;PMS_P1;PMS_P2;Temp;Humidity;BMP_temperature;BMP_pressure;BME280_temperature;BME280_humidity;BME280_pressure;Samples;Min_cycle;Max_cycle;Signal;HPM_P1;HPM_P2
2021/11/06 00:00:19;;;;;;;;;;;;;;;11.75;nan;99845.50;5074707;28;19935;-84
2021/11/06 00:02:47;;;;;;;;;;;;;;;11.99;nan;99840.88;5058484;28;19924;-84
2021/11/06 00:05:14;;;;;;;;;;;;;;;11.81;nan;99838.25;5075213;28;19924;-84
2021/11/06 00:07:42;;;;;;;;;;;;;;;11.89;nan;99850.19;5074821;28;19924;-84
2021/11/06 00:10:10;;;;;;;;;;;;;;;11.65;nan;99818.38;5055012;28;19924;-84
2021/11/06 00:12:38;;;;;;;;;;;;;;;11.96;nan;99828.50;5052943;28;19924;-84
2021/11/06 00:15:06;;;;;;;;;;;;;;;11.94;nan;99816.91;5054585;28;20029;-84
2021/11/06 00:17:35;;;;;;;;;;;;;;;12.02;nan;99823.25;5084786;28;19924;-84
2021/11/06 00:20:03;;;;;;;;;;;;;;;12.01;nan;99813.25;5074755;28;19924;-84
2021/11/06 00:22:32;;;;;;;;;;;;;;;12.02;nan;99812.84;5074949;28;19931;-84
2021/11/06 00:25:00;;;;;;;;;;;;;;;11.87;nan;99808.59;5074955;28;20136;-84
2021/11/06 00:27:27;;;;;;;;;;;;;;;11.88;nan;99810.16;5074714;28;20296;-84
2021/11/06 00:29:54;;;;;;;;;;;;;;;11.66;nan;99825.53;5057707;28;19984;-84
2021/11/06 00:32:21;;;;;;;;;;;;;;;11.54;nan;99823.22;5091583;28;19931;-84
2021/11/06 00:34:48;;;;;;;;;;;;;;;11.82;nan;99831.44;5057885;28;19924;-84
2021/11/06 00:37:17;;;;;;;;;;;;;;;11.79;nan;99807.06;5092314;28;19931;-84
2021/11/06 00:39:44;;;;;;;;;;;;;;;11.98;nan;99812.06;5074742;28;19928;-84
2021/11/06 00:42:12;;;;;;;;;;;;;;;12.00;nan;99820.84;5092591;28;19965;-84
2021/11/06 00:44:39;;;;;;;;;;;;;;;12.08;nan;99825.19;5074411;28;19931;-84
2021/11/06 00:47:07;;;;;;;;;;;;;;;12.11;nan;99827.16;5092406;28;19924;-84
2021/11/06 00:49:34;;;;;;;;;;;;;;;12.04;nan;99835.59;5058063;28;19928;-84
2021/11/06 00:52:01;;;;;;;;;;;;;;;11.89;nan;99848.16;5074483;28;19924;-84
2021/11/06 00:54:28;;;;;;;;;;;;;;;12.06;nan;99844.41;5074660;28;19928;-84
2021/11/06 00:56:55;;;;;;;;;;;;;;;11.91;nan;99848.53;5041945;28;20402;-84
2021/11/06 00:59:23;;;;;;;;;;;;;;;12.01;nan;99844.84;5093796;28;19993;-84
2021/11/06 01:01:51;;;;;;;;;;;;;;;12.01;nan;99844.06;5042183;28;20426;-84
2021/11/06 01:04:18;;;;;;;;;;;;;;;11.99;nan;99841.69;5092400;28;19930;-84
2021/11/06 01:06:45;;;;;;;;;;;;;;;11.96;nan;99839.72;5078503;28;19924;-84
2021/11/06 01:09:13;;;;;;;;;;;;;;;12.03;nan;99850.84;5058687;28;19930;-84
2021/11/06 01:11:40;;;;;;;;;;;;;;;11.94;nan;99853.31;5058064;28;19928;-84
2021/11/06 01:14:07;;;;;;;;;;;;;;;12.09;nan;99854.78;5054106;28;19925;-84
2021/11/06 01:16:34;;;;;;;;;;;;;;;11.74;nan;99843.13;5041705;28;19932;-85
2021/11/06 01:19:01;;;;;;;;;;;;;;;12.00;nan;99862.88;5045007;28;19928;-84
2021/11/06 01:21:29;;;;;;;;;;;;;;;12.09;nan;99876.38;5061341;28;20389;-84
2021/11/06 01:23:56;;;;;;;;;;;;;;;11.69;nan;99866.72;5096260;28;20290;-84
2021/11/06 01:26:23;;;;;;;;;;;;;;;11.99;nan;99866.88;5061395;28;19928;-84
2021/11/06 01:28:50;;;;;;;;;;;;;;;12.02;nan;99860.47;5077664;28;19924;-84
2021/11/06 01:31:18;;;;;;;;;;;;;;;12.00;nan;99865.66;5077989;28;19924;-84
2021/11/06 01:33:45;;;;;;;;;;;;;;;12.09;nan;99860.38;5095890;28;19976;-84
2021/11/06 01:36:12;;;;;;;;;;;;;;;12.29;nan;99858.59;5061256;28;19932;-84
2021/11/06 01:38:42;;;;;;;;;;;;;;;12.29;nan;99858.59;5044528;28;19924;-84
2021/11/06 01:41:10;;;;;;;;;;;;;;;12.52;nan;99853.13;5095622;28;20282;-85
2021/11/06 01:43:38;;;;;;;;;;;;;;;12.33;nan;99842.53;5061022;28;19924;-84
2021/11/06 01:46:07;;;;;;;;;;;;;;;12.21;nan;99845.84;5063672;28;19928;-85
2021/11/06 01:48:34;;;;;;;;;;;;;;;12.45;nan;99843.97;5077568;28;19976;-85
2021/11/06 01:51:02;;;;;;;;;;;;;;;12.37;nan;99846.06;5077420;28;20379;-84
2021/11/06 01:53:30;;;;;;;;;;;;;;;12.39;nan;99845.66;5077401;28;19932;-84
2021/11/06 01:55:58;;;;;;;;;;;;;;;12.30;nan;99848.97;5094223;28;20310;-85
2021/11/06 01:58:27;;;;;;;;;;;;;;;12.53;nan;99846.31;5056883;28;19930;-85
2021/11/06 02:00:54;;;;;;;;;;;;;;;12.45;nan;99847.59;5053261;28;19924;-85
2021/11/06 02:03:21;;;;;;;;;;;;;;;12.59;nan;99839.03;5065585;28;20304;-85
2021/11/06 02:05:49;;;;;;;;;;;;;;;12.40;nan;99842.44;5062918;28;20295;-85
2021/11/06 02:08:17;;;;;;;;;;;;;;;12.16;nan;99837.88;5095232;28;19924;-85
2021/11/06 02:10:44;;;;;;;;;;;;;;;12.24;nan;99841.41;5094883;28;20322;-85
2021/11/06 02:13:13;;;;;;;;;;;;;;;12.26;nan;99842.59;5040792;28;19973;-86
2021/11/06 02:15:40;;;;;;;;;;;;;;;12.46;nan;99834.38;5077044;28;20371;-86
2021/11/06 02:18:07;;;;;;;;;;;;;;;12.53;nan;99828.69;5094927;28;20379;-85
2021/11/06 02:20:35;;;;;;;;;;;;;;;12.39;nan;99835.25;5060376;28;19924;-85
2021/11/06 02:23:03;;;;;;;;;;;;;;;12.44;nan;99817.19;5076836;28;20383;-85
2021/11/06 02:25:30;;;;;;;;;;;;;;;12.21;nan;99825.44;5060197;28;20401;-85
2021/11/06 02:27:57;;;;;;;;;;;;;;;12.28;nan;99826.16;5060198;28;19924;-85
2021/11/06 02:30:24;;;;;;;;;;;;;;;12.35;nan;99822.50;5073674;28;20392;-86
2021/11/06 02:32:52;;;;;;;;;;;;;;;12.17;nan;99822.69;5056641;28;19944;-85
2021/11/06 02:35:20;;;;;;;;;;;;;;;12.58;nan;99820.63;5076281;28;19924;-85
2021/11/06 02:37:48;;;;;;;;;;;;;;;12.85;nan;99812.25;5056685;28;19924;-85
2021/11/06 02:40:15;;;;;;;;;;;;;;;12.69;nan;99806.47;5050252;28;19939;-86
2021/11/06 02:42:42;;;;;;;;;;;;;;;12.75;nan;99813.97;5076736;28;19924;-85
2021/11/06 02:45:10;;;;;;;;;;;;;;;12.40;nan;99811.59;5076664;28;19934;-85
2021/11/06 02:47:38;;;;;;;;;;;;;;;12.49;nan;99809.13;5076558;28;19924;-85
2021/11/06 02:50:05;;;;;;;;;;;;;;;12.57;nan;99813.41;5059787;28;20456;-85
2021/11/06 02:52:32;;;;;;;;;;;;;;;12.40;nan;99813.63;5076214;28;19924;-85
2021/11/06 02:54:59;;;;;;;;;;;;;;;12.64;nan;99818.94;5094182;28;19924;-85
2021/11/06 02:57:28;;;;;;;;;;;;;;;12.45;nan;99822.38;5059533;28;19924;-86
2021/11/06 02:59:56;;;;;;;;;;;;;;;12.44;nan;99822.78;5076330;28;19924;-86
2021/11/06 03:02:23;;;;;;;;;;;;;;;12.68;nan;99813.28;5062045;28;19938;-85
2021/11/06 03:04:50;;;;;;;;;;;;;;;12.44;nan;99814.38;5076275;28;19924;-85
2021/11/06 03:07:17;;;;;;;;;;;;;;;12.56;nan;99808.22;5076330;28;19930;-86
2021/11/06 03:09:44;;;;;;;;;;;;;;;12.39;nan;99810.03;5075817;28;19928;-85
2021/11/06 03:12:14;;;;;;;;;;;;;;;12.67;nan;99798.47;5094316;28;19928;-86
2021/11/06 03:14:44;;;;;;;;;;;;;;;12.46;nan;99795.91;5058009;28;19925;-86
2021/11/06 03:17:12;;;;;;;;;;;;;;;12.77;nan;99783.50;5032814;28;20324;-85
2021/11/06 03:19:39;;;;;;;;;;;;;;;12.57;nan;99793.78;5075680;28;19930;-85
2021/11/06 03:22:07;;;;;;;;;;;;;;;12.68;nan;99797.25;5075995;28;19924;-85
2021/11/06 03:24:34;;;;;;;;;;;;;;;12.75;nan;99787.97;5058800;28;20169;-86
2021/11/06 03:27:08;;;;;;;;;;;;;;;12.56;nan;99783.78;5075891;28;19924;-86
2021/11/06 03:29:56;;;;;;;;;;;;;;;12.51;nan;99781.44;5062023;28;19930;-85
2021/11/06 03:32:25;;;;;;;;;;;;;;;12.65;nan;99777.66;5055466;28;19939;-85
2021/11/06 03:34:52;;;;;;;;;;;;;;;12.94;nan;99764.84;5055070;28;19924;-85
2021/11/06 03:37:20;;;;;;;;;;;;;;;12.78;nan;99761.88;5075307;28;19973;-85
2021/11/06 03:39:47;;;;;;;;;;;;;;;13.03;nan;99764.34;5075366;28;20495;-86
2021/11/06 03:42:14;;;;;;;;;;;;;;;13.04;nan;99752.69;5093390;28;19967;-86
2021/11/06 03:44:42;;;;;;;;;;;;;;;12.78;nan;99754.25;5093426;28;20345;-86
2021/11/06 03:47:09;;;;;;;;;;;;;;;12.98;nan;99747.97;5075528;28;19931;-85
2021/11/06 03:49:36;;;;;;;;;;;;;;;12.80;nan;99744.63;5042456;28;20395;-86
2021/11/06 03:52:04;;;;;;;;;;;;;;;12.90;nan;99747.28;5048382;28;19928;-86
2021/11/06 03:54:31;;;;;;;;;;;;;;;12.73;nan;99751.13;5035282;28;19924;-86
2021/11/06 03:56:58;;;;;;;;;;;;;;;12.69;nan;99756.78;5062719;28;19934;-86
2021/11/06 03:59:26;;;;;;;;;;;;;;;12.56;nan;99752.97;5038570;28;19928;-86
2021/11/06 04:01:55;;;;;;;;;;;;;;;12.67;nan;99745.22;5088890;28;19924;-86
2021/11/06 04:04:22;;;;;;;;;;;;;;;12.66;nan;99749.22;5056909;28;20432;-86
2021/11/06 04:06:49;;;;;;;;;;;;;;;12.62;nan;99742.06;5058207;28;19924;-86
2021/11/06 04:09:17;;;;;;;;;;;;;;;12.51;nan;99736.59;5075009;28;19924;-86
2021/11/06 04:11:44;;;;;;;;;;;;;;;12.35;nan;99755.22;5075120;28;19924;-86
2021/11/06 04:14:11;;;;;;;;;;;;;;;12.69;nan;99748.38;5075108;28;19981;-86
2021/11/06 04:16:39;;;;;;;;;;;;;;;12.65;nan;99758.03;5055045;28;19930;-86
2021/11/06 04:19:06;;;;;;;;;;;;;;;12.38;nan;99755.19;5084271;28;19925;-86
2021/11/06 04:21:33;;;;;;;;;;;;;;;12.66;nan;99754.81;5041283;28;20423;-86
2021/11/06 04:24:02;;;;;;;;;;;;;;;12.67;nan;99755.63;5054967;28;19931;-86
2021/11/06 04:26:29;;;;;;;;;;;;;;;12.61;nan;99752.50;5104030;28;19924;-86
2021/11/06 04:29:02;;;;;;;;;;;;;;;12.69;nan;99748.38;5058954;28;19976;-86
2021/11/06 04:31:30;;;;;;;;;;;;;;;12.84;nan;99748.19;5074661;28;19931;-86
2021/11/06 04:33:57;;;;;;;;;;;;;;;12.87;nan;99741.72;5074904;28;19924;-86
2021/11/06 04:36:24;;;;;;;;;;;;;;;12.50;nan;99737.81;5057830;28;19928;-86
2021/11/06 04:38:51;;;;;;;;;;;;;;;12.85;nan;99735.72;5037912;28;20175;-87
2021/11/06 04:41:19;;;;;;;;;;;;;;;12.64;nan;99729.22;5066077;28;19928;-85
2021/11/06 04:43:46;;;;;;;;;;;;;;;13.07;nan;99723.03;5058073;28;19928;-86
2021/11/06 04:46:13;;;;;;;;;;;;;;;13.03;nan;99714.66;5092688;28;19931;-86
2021/11/06 04:48:40;;;;;;;;;;;;;;;12.97;nan;99721.13;5039987;28;19924;-86
2021/11/06 04:51:07;;;;;;;;;;;;;;;12.44;nan;99719.88;5074306;28;19924;-86
2021/11/06 04:53:35;;;;;;;;;;;;;;;12.81;nan;99712.56;5074428;28;19924;-85
2021/11/06 04:56:02;;;;;;;;;;;;;;;12.74;nan;99708.66;5057828;28;19924;-85
2021/11/06 04:58:29;;;;;;;;;;;;;;;12.52;nan;99720.59;5034620;28;19924;-85
2021/11/06 05:00:57;;;;;;;;;;;;;;;12.82;nan;99723.34;5074196;28;19954;-85
2021/11/06 05:03:24;;;;;;;;;;;;;;;12.59;nan;99726.88;5074695;28;19924;-85
2021/11/06 05:05:52;;;;;;;;;;;;;;;12.84;nan;99726.53;5074251;28;19936;-85
2021/11/06 05:08:19;;;;;;;;;;;;;;;12.53;nan;99731.38;5074063;28;19979;-85
2021/11/06 05:10:46;;;;;;;;;;;;;;;12.62;nan;99720.44;5074349;28;19928;-85
2021/11/06 05:13:13;;;;;;;;;;;;;;;12.40;nan;99718.34;5074279;28;19924;-86
2021/11/06 05:15:40;;;;;;;;;;;;;;;12.57;nan;99715.28;5054219;28;20371;-85
2021/11/06 05:18:09;;;;;;;;;;;;;;;12.13;nan;99709.09;5073748;28;19924;-85
2021/11/06 05:20:38;;;;;;;;;;;;;;;12.16;nan;99709.03;5073986;28;19924;-85
2021/11/06 05:23:05;;;;;;;;;;;;;;;12.57;nan;99712.50;5074120;28;19928;-85
2021/11/06 05:25:32;;;;;;;;;;;;;;;12.40;nan;99707.13;5037684;28;19924;-86
2021/11/06 05:27:59;;;;;;;;;;;;;;;12.50;nan;99698.59;5070760;28;19948;-85
2021/11/06 05:30:28;;;;;;;;;;;;;;;12.59;nan;99692.44;5074258;28;19930;-85
2021/11/06 05:32:56;;;;;;;;;;;;;;;12.88;nan;99682.41;5073957;28;19928;-85
2021/11/06 05:35:23;;;;;;;;;;;;;;;12.65;nan;99691.56;5073830;28;19928;-85
2021/11/06 05:37:51;;;;;;;;;;;;;;;12.53;nan;99697.75;5074031;28;19924;-85
2021/11/06 05:40:18;;;;;;;;;;;;;;;12.52;nan;99692.56;5074061;28;20299;-85
2021/11/06 05:42:45;;;;;;;;;;;;;;;12.40;nan;99690.31;5095334;28;20040;-85
2021/11/06 05:45:12;;;;;;;;;;;;;;;12.48;nan;99680.59;5060881;28;19924;-86
2021/11/06 05:47:41;;;;;;;;;;;;;;;12.74;nan;99674.19;5095271;28;20314;-85
2021/11/06 05:50:09;;;;;;;;;;;;;;;12.77;nan;99672.56;5094929;28;19924;-85
2021/11/06 05:52:36;;;;;;;;;;;;;;;12.38;nan;99668.31;5061099;28;19973;-86
2021/11/06 05:55:05;;;;;;;;;;;;;;;12.51;nan;99655.31;5077244;28;20407;-85
2021/11/06 05:57:34;;;;;;;;;;;;;;;12.67;nan;99654.69;5060923;28;19924;-85
2021/11/06 06:00:05;;;;;;;;;;;;;;;13.01;nan;99660.19;5040899;28;19931;-85
2021/11/06 06:02:33;;;;;;;;;;;;;;;12.69;nan;99647.44;5076962;28;19924;-85
2021/11/06 06:05:00;;;;;;;;;;;;;;;12.60;nan;99649.19;5077258;28;19924;-85
2021/11/06 06:07:27;;;;;;;;;;;;;;;12.58;nan;99640.41;5077226;28;20409;-86
2021/11/06 06:09:54;;;;;;;;;;;;;;;12.74;nan;99632.94;5060680;28;19924;-85
2021/11/06 06:12:21;;;;;;;;;;;;;;;12.67;nan;99633.06;5077310;28;19928;-85
2021/11/06 06:14:48;;;;;;;;;;;;;;;12.54;nan;99629.25;5063288;28;19932;-86
2021/11/06 06:17:15;;;;;;;;;;;;;;;12.69;nan;99627.81;5060147;28;20265;-85
2021/11/06 06:19:43;;;;;;;;;;;;;;;12.37;nan;99627.47;5063019;28;19924;-85
2021/11/06 06:22:10;;;;;;;;;;;;;;;12.52;nan;99623.28;5040314;28;19924;-85
2021/11/06 06:24:38;;;;;;;;;;;;;;;12.53;nan;99619.25;5073698;28;20307;-85
2021/11/06 06:27:05;;;;;;;;;;;;;;;12.70;nan;99617.38;5076719;28;19946;-85
2021/11/06 06:29:33;;;;;;;;;;;;;;;12.66;nan;99613.84;5076887;28;19924;-86
2021/11/06 06:32:00;;;;;;;;;;;;;;;12.65;nan;99610.25;5072716;28;19924;-86
2021/11/06 06:34:28;;;;;;;;;;;;;;;12.70;nan;99601.38;5070812;28;19935;-86
2021/11/06 06:36:55;;;;;;;;;;;;;;;12.72;nan;99600.94;5046194;28;20339;-86
2021/11/06 06:39:22;;;;;;;;;;;;;;;12.43;nan;99599.78;5094475;28;19976;-86
2021/11/06 06:41:50;;;;;;;;;;;;;;;12.02;nan;99608.38;5056136;28;19928;-86
2021/11/06 06:44:17;;;;;;;;;;;;;;;12.51;nan;99610.47;5050823;28;19972;-86
2021/11/06 06:46:44;;;;;;;;;;;;;;;12.19;nan;99612.94;5059385;28;19928;-86
2021/11/06 06:49:11;;;;;;;;;;;;;;;12.27;nan;99594.81;5076481;28;20294;-86
2021/11/06 06:51:39;;;;;;;;;;;;;;;12.36;nan;99609.09;5093037;28;19924;-85
2021/11/06 06:54:06;;;;;;;;;;;;;;;12.51;nan;99610.47;5075230;28;19924;-86
2021/11/06 06:56:33;;;;;;;;;;;;;;;12.33;nan;99615.53;5059755;28;19928;-86
2021/11/06 06:59:00;;;;;;;;;;;;;;;12.08;nan;99606.69;5076290;28;19931;-87
2021/11/06 07:01:28;;;;;;;;;;;;;;;12.20;nan;99608.94;5039256;28;20272;-86
2021/11/06 07:03:55;;;;;;;;;;;;;;;12.39;nan;99599.84;5070294;28;20345;-86
2021/11/06 07:06:22;;;;;;;;;;;;;;;12.55;nan;99602.00;5059513;28;20531;-86
2021/11/06 07:08:49;;;;;;;;;;;;;;;12.60;nan;99610.72;5059362;28;20294;-86
2021/11/06 07:11:17;;;;;;;;;;;;;;;12.38;nan;99594.66;5075912;28;19924;-86
2021/11/06 07:13:45;;;;;;;;;;;;;;;12.47;nan;99597.72;5074123;28;20298;-86
2021/11/06 07:16:13;;;;;;;;;;;;;;;12.23;nan;99587.66;5075558;28;19924;-86
2021/11/06 07:18:41;;;;;;;;;;;;;;;12.30;nan;99602.38;5093501;28;19924;-85
2021/11/06 07:21:08;;;;;;;;;;;;;;;12.43;nan;99592.16;5075579;28;19924;-86
2021/11/06 07:23:40;;;;;;;;;;;;;;;12.25;nan;99588.81;5093350;28;19947;-86
2021/11/06 07:26:07;;;;;;;;;;;;;;;12.56;nan;99604.38;5040402;28;19973;-86
2021/11/06 07:28:35;;;;;;;;;;;;;;;12.33;nan;99590.31;5075675;28;19931;-86
2021/11/06 07:31:02;;;;;;;;;;;;;;;12.32;nan;99611.16;5075024;28;19973;-86
2021/11/06 07:33:30;;;;;;;;;;;;;;;12.15;nan;99595.38;5063020;28;20379;-87
2021/11/06 07:35:57;;;;;;;;;;;;;;;12.08;nan;99603.91;5043571;28;19924;-86
2021/11/06 07:38:25;;;;;;;;;;;;;;;12.25;nan;99594.44;5060267;28;20340;-84
2021/11/06 07:40:52;;;;;;;;;;;;;;;11.91;nan;99587.31;5076788;28;20299;-88
2021/11/06 07:43:19;;;;;;;;;;;;;;;12.13;nan;99597.81;5073048;28;20294;-87
2021/11/06 07:45:47;;;;;;;;;;;;;;;12.14;nan;99595.81;5039966;28;19928;-88
2021/11/06 07:48:14;;;;;;;;;;;;;;;12.15;nan;99600.19;5074522;28;20378;-88
2021/11/06 07:50:42;;;;;;;;;;;;;;;12.52;nan;99606.47;5069873;28;20314;-88
2021/11/06 07:53:34;;;;;;;;;;;;;;;12.57;nan;99611.56;5072054;28;20401;-87
2021/11/06 07:56:01;;;;;;;;;;;;;;;12.37;nan;99596.66;5050284;28;20341;-88
2021/11/06 07:58:28;;;;;;;;;;;;;;;12.59;nan;99603.53;5065005;28;19973;-88
2021/11/06 08:00:57;;;;;;;;;;;;;;;12.39;nan;99605.44;5037384;28;19931;-88
2021/11/06 08:03:25;;;;;;;;;;;;;;;12.54;nan;99604.00;5076387;28;20302;-88
2021/11/06 08:05:52;;;;;;;;;;;;;;;12.36;nan;99592.28;5074372;28;19924;-88
2021/11/06 08:08:20;;;;;;;;;;;;;;;12.24;nan;99595.66;5074092;28;19924;-87
2021/11/06 08:10:47;;;;;;;;;;;;;;;12.37;nan;99602.25;5063462;28;19985;-88
2021/11/06 08:13:15;;;;;;;;;;;;;;;12.27;nan;99596.81;5056495;28;20460;-88
2021/11/06 08:15:42;;;;;;;;;;;;;;;12.51;nan;99585.25;5072231;28;19924;-88
2021/11/06 08:18:10;;;;;;;;;;;;;;;12.35;nan;99593.50;5071558;28;19928;-87
2021/11/06 08:20:37;;;;;;;;;;;;;;;12.33;nan;99584.72;5057042;28;19935;-88
2021/11/06 08:23:04;;;;;;;;;;;;;;;12.35;nan;99579.50;5041154;28;19931;-88
2021/11/06 08:25:32;;;;;;;;;;;;;;;12.28;nan;99576.00;5039710;28;19924;-87
2021/11/06 08:27:59;;;;;;;;;;;;;;;12.38;nan;99577.84;5091714;28;19930;-88
2021/11/06 08:30:27;;;;;;;;;;;;;;;12.15;nan;99572.16;5056763;28;20390;-88
2021/11/06 08:32:56;;;;;;;;;;;;;;;12.03;nan;99564.34;5079584;28;19931;-88
2021/11/06 08:35:28;;;;;;;;;;;;;;;12.32;nan;99557.91;5082530;28;19928;-88
2021/11/06 08:38:00;;;;;;;;;;;;;;;12.22;nan;99560.88;5055842;28;19925;-88
2021/11/06 08:40:28;;;;;;;;;;;;;;;12.36;nan;99543.84;5062140;28;19929;-87
2021/11/06 08:42:57;;;;;;;;;;;;;;;12.10;nan;99542.63;5058850;28;19931;-88
2021/11/06 08:45:24;;;;;;;;;;;;;;;12.07;nan;99549.06;5082884;28;19933;-88
2021/11/06 08:47:52;;;;;;;;;;;;;;;12.07;nan;99549.06;5066924;28;20194;-88
2021/11/06 08:50:20;;;;;;;;;;;;;;;12.33;nan;99553.88;5064728;28;20307;-87
2021/11/06 08:52:49;;;;;;;;;;;;;;;12.55;nan;99532.72;5068609;28;20449;-84
2021/11/06 08:55:16;;;;;;;;;;;;;;;12.49;nan;99531.63;5046531;28;19948;-86
2021/11/06 08:57:43;;;;;;;;;;;;;;;11.92;nan;99530.09;5063555;28;19925;-85
2021/11/06 09:00:14;;;;;;;;;;;;;;;12.26;nan;99528.00;5073353;28;19931;-85
2021/11/06 09:02:43;;;;;;;;;;;;;;;12.13;nan;99532.59;5072390;28;19928;-85
2021/11/06 09:05:11;;;;;;;;;;;;;;;12.00;nan;99535.19;5055972;28;19932;-85
2021/11/06 09:07:38;;;;;;;;;;;;;;;12.28;nan;99520.72;5072470;28;19935;-85
2021/11/06 09:10:06;;;;;;;;;;;;;;;12.30;nan;99532.31;5073615;28;19931;-86
2021/11/06 09:12:34;;;;;;;;;;;;;;;12.15;nan;99519.75;5073134;28;20387;-84
2021/11/06 09:15:01;;;;;;;;;;;;;;;12.42;nan;99534.53;5072451;28;19924;-84
2021/11/06 09:17:28;;;;;;;;;;;;;;;12.31;nan;99525.50;5075264;28;19948;-84
2021/11/06 09:19:55;;;;;;;;;;;;;;;12.52;nan;99524.38;5039303;28;19925;-83
2021/11/06 09:22:23;;;;;;;;;;;;;;;12.44;nan;99515.28;5052187;28;19924;-84
2021/11/06 09:24:50;;;;;;;;;;;;;;;12.67;nan;99515.31;5041868;28;19932;-84
2021/11/06 09:27:18;;;;;;;;;;;;;;;12.63;nan;99503.34;5089204;28;19928;-86
2021/11/06 09:29:45;;;;;;;;;;;;;;;12.35;nan;99505.81;5056513;28;19924;-84
2021/11/06 09:32:12;;;;;;;;;;;;;;;12.48;nan;99496.41;5050512;28;19925;-84
2021/11/06 09:34:41;;;;;;;;;;;;;;;12.81;nan;99502.25;5071038;28;19977;-84
2021/11/06 09:37:08;;;;;;;;;;;;;;;12.84;nan;99490.16;5063785;28;19935;-83
2021/11/06 09:39:36;;;;;;;;;;;;;;;12.57;nan;99495.88;5064481;28;19930;-81
2021/11/06 09:42:04;;;;;;;;;;;;;;;12.62;nan;99496.16;5062670;28;19954;-83
2021/11/06 09:44:34;;;;;;;;;;;;;;;12.91;nan;99498.44;5062648;28;19924;-82
2021/11/06 09:47:08;;;;;;;;;;;;;;;12.78;nan;99504.69;5063309;28;19973;-81
2021/11/06 09:49:36;;;;;;;;;;;;;;;12.46;nan;99496.00;5079029;28;19928;-78
2021/11/06 09:52:03;;;;;;;;;;;;;;;12.52;nan;99487.94;5097187;28;19925;-82
2021/11/06 09:54:31;;;;;;;;;;;;;;;12.55;nan;99473.06;5079134;28;19924;-81
2021/11/06 09:57:00;;;;;;;;;;;;;;;12.51;nan;99480.75;5078672;28;19934;-93
2021/11/06 09:59:27;;;;;;;;;;;;;;;12.66;nan;99468.84;5058999;28;19924;-82
2021/11/06 10:01:55;;;;;;;;;;;;;;;12.81;nan;99463.78;5058220;28;19931;-83
2021/11/06 10:04:22;;;;;;;;;;;;;;;12.68;nan;99455.19;5096445;28;20348;-81
2021/11/06 10:06:49;;;;;;;;;;;;;;;12.68;nan;99460.00;5078590;28;19925;-80
2021/11/06 10:09:17;;;;;;;;;;;;;;;12.98;nan;99453.44;5078228;28;19924;-82
2021/11/06 10:11:45;;;;;;;;;;;;;;;12.92;nan;99463.59;5058937;28;19974;-82
2021/11/06 10:14:19;;;;;;;;;;;;;;;13.24;nan;99455.38;5074164;28;19931;-82
2021/11/06 10:16:55;;;;;;;;;;;;;;;12.81;nan;99454.56;5075703;28;19924;-81
2021/11/06 10:19:26;;;;;;;;;;;;;;;12.75;nan;99437.47;5077006;28;20341;-81
2021/11/06 10:22:10;;;;;;;;;;;;;;;12.70;nan;99440.75;5094121;28;19924;-81
2021/11/06 10:24:39;;;;;;;;;;;;;;;12.83;nan;99435.31;5094505;28;20298;-82
2021/11/06 10:27:16;;;;;;;;;;;;;;;13.11;nan;99431.97;5077062;28;19931;-82
2021/11/06 10:29:44;;;;;;;;;;;;;;;13.11;nan;99427.16;5077097;28;19924;-82
2021/11/06 10:32:11;;;;;;;;;;;;;;;13.40;nan;99421.75;5076317;28;19924;-81
2021/11/06 10:34:40;;;;;;;;;;;;;;;13.12;nan;99411.91;5076050;28;19935;-82
2021/11/06 10:37:12;;;;;;;;;;;;;;;12.77;nan;99401.34;5076435;28;19928;-83
2021/11/06 10:39:59;;;;;;;;;;;;;;;13.26;nan;99405.19;5059600;28;19924;-81
2021/11/06 10:42:27;;;;;;;;;;;;;;;13.28;nan;99403.56;5086979;28;19931;-82
2021/11/06 10:45:26;;;;;;;;;;;;;;;13.36;nan;99404.97;5066449;28;19925;-82
2021/11/06 10:47:55;;;;;;;;;;;;;;;13.60;nan;99402.84;5051100;28;20303;-82
2021/11/06 10:50:41;;;;;;;;;;;;;;;13.45;nan;99390.38;5069220;28;20394;-81
2021/11/06 10:53:09;;;;;;;;;;;;;;;13.58;nan;99391.25;5047822;28;19932;-82
2021/11/06 10:55:38;;;;;;;;;;;;;;;13.30;nan;99397.50;5062461;28;19931;-82
2021/11/06 10:58:19;;;;;;;;;;;;;;;13.44;nan;99369.91;5083469;28;19931;-82
2021/11/06 11:01:06;;;;;;;;;;;;;;;13.53;nan;99361.69;5096726;28;19931;-82
2021/11/06 11:03:35;;;;;;;;;;;;;;;13.58;nan;99360.38;5075720;28;19928;-82
2021/11/06 11:06:06;;;;;;;;;;;;;;;13.79;nan;99355.06;5090418;28;20344;-82
2021/11/06 11:08:40;;;;;;;;;;;;;;;13.39;nan;99347.97;5056872;28;20341;-83
2021/11/06 11:11:08;;;;;;;;;;;;;;;13.56;nan;99360.00;5092806;28;20306;-83
2021/11/06 11:13:45;;;;;;;;;;;;;;;13.62;nan;99355.47;5091744;28;19992;-85
2021/11/06 11:16:15;;;;;;;;;;;;;;;13.62;nan;99352.66;5039072;28;19925;-82
2021/11/06 11:18:44;;;;;;;;;;;;;;;13.49;nan;99358.19;5083985;28;19924;-82
2021/11/06 11:21:12;;;;;;;;;;;;;;;13.56;nan;99345.97;5073329;28;19928;-82
2021/11/06 11:23:41;;;;;;;;;;;;;;;13.79;nan;99331.78;5060584;28;19924;-81
2021/11/06 11:26:09;;;;;;;;;;;;;;;13.81;nan;99313.25;5094329;28;19989;-81
2021/11/06 11:28:37;;;;;;;;;;;;;;;14.07;nan;99306.56;5077496;28;19947;-82
2021/11/06 11:31:05;;;;;;;;;;;;;;;14.41;nan;99317.34;5092697;28;19925;-82
2021/11/06 11:33:36;;;;;;;;;;;;;;;14.26;nan;99304.91;5057420;28;19931;-82
2021/11/06 11:36:04;;;;;;;;;;;;;;;13.88;nan;99275.78;5090001;28;20884;-82
2021/11/06 11:38:31;;;;;;;;;;;;;;;14.39;nan;99284.06;5091888;28;19924;-82
2021/11/06 11:41:02;;;;;;;;;;;;;;;14.17;nan;99296.28;5056885;28;19929;-82
2021/11/06 11:43:47;;;;;;;;;;;;;;;14.32;nan;99281.44;5075055;28;19928;-82
2021/11/06 11:46:26;;;;;;;;;;;;;;;14.32;nan;99281.44;5076779;28;19950;-83
2021/11/06 11:48:54;;;;;;;;;;;;;;;14.35;nan;99246.03;5065897;28;19924;-82
2021/11/06 11:51:32;;;;;;;;;;;;;;;14.49;nan;99240.00;5076498;28;19934;-81
2021/11/06 11:54:07;;;;;;;;;;;;;;;14.33;nan;99232.41;5065753;28;19969;-82
2021/11/06 11:56:35;;;;;;;;;;;;;;;14.43;nan;99220.06;5091219;28;20340;-81
2021/11/06 11:59:02;;;;;;;;;;;;;;;14.16;nan;99225.22;5074026;28;19932;-82
2021/11/06 12:01:31;;;;;;;;;;;;;;;14.15;nan;99220.84;5076180;28;19992;-82
2021/11/06 12:04:14;;;;;;;;;;;;;;;14.57;nan;99215.28;5093554;28;19934;-82
2021/11/06 12:06:44;;;;;;;;;;;;;;;14.71;nan;99195.94;5056527;28;20456;-81
2021/11/06 12:09:11;;;;;;;;;;;;;;;14.53;nan;99184.44;5059444;28;19925;-82
2021/11/06 12:11:51;;;;;;;;;;;;;;;14.65;nan;99192.13;5069657;28;19928;-82
2021/11/06 12:14:20;;;;;;;;;;;;;;;14.96;nan;99196.00;5042651;28;20500;-82
2021/11/06 12:16:49;;;;;;;;;;;;;;;14.65;nan;99203.38;5040769;28;20444;-82
2021/11/06 12:19:36;;;;;;;;;;;;;;;14.57;nan;99202.00;5075995;28;19924;-82
2021/11/06 12:22:09;;;;;;;;;;;;;;;14.55;nan;99189.63;5073943;28;20384;-82
2021/11/06 12:24:38;;;;;;;;;;;;;;;14.51;nan;99198.16;5059799;28;20410;-82
2021/11/06 12:27:07;;;;;;;;;;;;;;;14.76;nan;99178.53;5090734;28;20341;-82
2021/11/06 12:29:36;;;;;;;;;;;;;;;15.04;nan;99168.41;5053526;28;19924;-82
2021/11/06 12:32:18;;;;;;;;;;;;;;;15.01;nan;99175.72;5072596;28;20327;-82
2021/11/06 12:34:49;;;;;;;;;;;;;;;14.62;nan;99172.53;5072418;28;19924;-83
2021/11/06 12:37:35;;;;;;;;;;;;;;;14.76;nan;99170.09;5051661;28;20393;-83
2021/11/06 12:40:06;;;;;;;;;;;;;;;14.69;nan;99152.66;5058810;28;19931;-83
2021/11/06 12:42:33;;;;;;;;;;;;;;;14.73;nan;99164.56;5039830;28;19924;-83
2021/11/06 12:45:03;;;;;;;;;;;;;;;14.54;nan;99143.84;5072307;28;19924;-82
2021/11/06 12:47:31;;;;;;;;;;;;;;;14.54;nan;99141.03;5094251;28;19965;-82
2021/11/06 12:50:13;;;;;;;;;;;;;;;14.48;nan;99128.78;5093831;28;19980;-83
2021/11/06 12:52:41;;;;;;;;;;;;;;;14.24;nan;99136.72;5079184;28;19924;-84
2021/11/06 12:55:08;;;;;;;;;;;;;;;14.00;nan;99141.00;5060002;28;19924;-84
2021/11/06 12:57:37;;;;;;;;;;;;;;;14.03;nan;99140.13;5078148;28;19924;-84
2021/11/06 13:00:09;;;;;;;;;;;;;;;14.12;nan;99125.41;5061634;28;20345;-84
2021/11/06 13:02:52;;;;;;;;;;;;;;;14.04;nan;99115.63;5089167;28;19950;-85
2021/11/06 13:05:21;;;;;;;;;;;;;;;14.06;nan;99124.38;5057241;28;19929;-84
2021/11/06 13:07:49;;;;;;;;;;;;;;;14.03;nan;99117.66;5040475;28;19924;-82
2021/11/06 13:10:16;;;;;;;;;;;;;;;13.93;nan;99120.75;5052866;28;20485;-82
2021/11/06 13:12:44;;;;;;;;;;;;;;;14.30;nan;99128.53;5062301;28;19953;-85
2021/11/06 13:15:11;;;;;;;;;;;;;;;14.10;nan;99128.66;5085617;28;19973;-82